Mount Isa Airport
YBMA : now visible

Airfield :











YOU CAN JOIN US ON...

 
LOGIN :

Register | Disclaimer

   EN    FR    IT 

 









Legend :    VFR   Marginal VFR   IFR   Intensive IFR   Very Intensive IFR
Visi :
Ceiling :
>= 8 km
>= 3000ft
5 to 8 km
1000 to 3000 ft
1500m to 5 km
500 to 1000 ft
800 to 1500m
200 to 500 ft
< 800m
< 200 ft
Symbols :   Thunderstorms  Fog  Heavy snow  Heavy precipitations  Wind > 20 kt






- Airport Elevation : 1121 ft
- IATA code : ISA


YBMA - Mount Isa

CURRENT METAR :
  • 240330Z AUTO 15007KT 120V180 9999 // NCD 28/01 Q1016 RF00.0/000.0

EXPIRED METARs :
  • 240300Z AUTO 14007KT 090V160 9999 // BKN082 27/M01 Q1017
  • 240230Z AUTO 12006KT 100V170 9999 // BKN082 27/01 Q1017
  • 240200Z AUTO 12009KT 9999 // OVC080 25/M01 Q1018 RF00.0/000.0
  • 240130Z AUTO 11011KT 9999 // BKN082 25/M00 Q1018 RF00.0/000.0
  • 240100Z AUTO 14009KT 9999 // BKN078 23/00 Q1019 RF00.0/000.0

TAF TAF YBMA
Valid from the 24 at 00:00 until the 24 at 12:00 UTC


232303Z 2400/2412 14014KT CAVOK
YBBB FIR / Oceania



MET'MAP, your aeronautical weather chart ! - Copyright ORBIFLY December 2007 - Disclaimer

ORBIFLY MET'MAP TEAM :

Programming & Development : Alexandra Zaïnal
Concept & original design : Baudouin d'Aumeries
Assistance for programming : Marc-Olivier Méhu
Technical & hardware support : Manuel Goepfert

Contact : metmap@orbifly.com




SOURCES & CREDITS :

   NOAA       Earth
Advisory